x

South Hecate Strait (46185) Wave Buoy

12:00am - Mon 20th Feb 2017 All times are PST. -8 hours from GMT.

  • Sig Wave height 3.6ft
  • Peak Period 15s
  • Wind
    9mph, 11mph gusts
  • Sea Temp 48°f
  • Air Temp 42°f
  • Sea Pressure 998.6mb
  • South Hecate Strait
  • South Hecate Strait

More Historic Weather Station data

Upgrade to MSW Pro to gain access to the past 30 days of data for over 8000 Wavebouys and Weather Stations around the globe.

Join Pro

Comparision Forecast

View Surf forecast
   
Mon 02/20 12:00am 3.5ft 15s 9 11 mph 998.6mb 48f 42f
Sun 02/19 11:00pm 3.5ft 14s 13 18 mph 998.4mb 48f 40f
10:00pm 3ft 15s 7 9 mph 998.2mb 48f 43f
9:00pm 2.5ft 16s 4 7 mph 997.8mb 48f 43f
8:00pm 3ft 15s 4
mph
997.5mb 48f 43f
7:00pm 2.5ft 10s 4 7 mph 997.3mb 48f 43f
6:00pm 2.5ft 15s 4
mph
997.2mb 48f 43f
5:00pm 2.5ft 17s 4
mph
997mb 48f 43f
4:00pm 2.5ft 13s 4 7 mph 996.8mb 48f 42f
3:00pm 2.5ft 11s 4 7 mph 996.5mb 48f 43f
2:00pm 2.5ft 13s 4 7 mph 996.5mb 48f 43f
1:00pm 2.5ft 11s 7 9 mph 996.4mb 48f 42f
12:00pm 2.5ft 10s 7 9 mph 996.4mb 47f 43f
11:00am 2.5ft 10s 4 7 mph 996.2mb 47f 42f
10:00am 2.5ft 11s 13 22 mph 995.7mb 47f 40f
9:00am 2.5ft 11s 11 13 mph 995.3mb 47f 42f
8:00am 2.5ft 10s 9 11 mph 995.1mb 47f 43f
7:00am 2.5ft 10s 11 13 mph 994.8mb 47f 43f
6:00am 3ft 10s 11 13 mph 994.7mb 47f 43f
5:00am 3ft 10s 13 16 mph 994.5mb 47f 43f
4:00am 3ft 11s 13 16 mph 994.5mb 47f 43f
3:00am 3ft 10s 11 13 mph 994.9mb 47f 42f
2:00am 3ft 10s 9 11 mph 994.8mb 47f 43f
1:00am 3.5ft 10s 7 9 mph 995mb 47f 43f
12:00am 3.5ft 10s 7 9 mph 995mb 47f 43f
Sat 02/18 11:00pm 3.5ft 10s 7
mph
994.9mb 47f 44f
10:00pm 3ft 10s 7
mph
994.9mb 47f 43f
9:00pm 3.5ft 10s 11
mph
994.5mb 47f 43f
8:00pm 3.5ft 10s 13 18 mph 994.4mb 47f 42f
7:00pm 3.5ft 11s 16 18 mph 994.5mb 47f 42f
6:00pm 3.5ft 10s 16 18 mph 994.7mb 47f 42f
5:00pm 3.5ft 11s 16 18 mph 995.2mb 47f 42f
4:00pm 3.5ft 11s 16 18 mph 995.4mb 47f 42f
3:00pm 3.5ft 10s 13 18 mph 995.8mb 47f 42f
2:00pm 3.5ft 11s 11 13 mph 996.2mb 47f 42f
1:00pm 3.5ft 11s 11 16 mph 996.8mb 47f 41f
12:00pm 4ft 10s 11 13 mph 997.5mb 48f 41f
11:00am 4ft 11s 13 16 mph 997.8mb 48f 40f
10:00am 4.5ft 11s 13 16 mph 998.4mb 48f 40f
9:00am 4.5ft 11s 18 20 mph 999mb 47f 40f
8:00am 4.5ft 10s 18 22 mph 999.5mb 47f 40f
7:00am 4.5ft 10s 18 22 mph 1000.1mb 47f 40f
6:00am 4.5ft 11s 18 22 mph 1000.9mb 47f 41f
5:00am 4.5ft 10s 20 22 mph 1001.6mb 47f 41f
4:00am 4.5ft 11s 18 22 mph 1002.4mb 48f 41f
3:00am 4.5ft 11s 18 20 mph 1003mb 48f 42f
2:00am 4.5ft 11s 16 18 mph 1003.5mb 48f 42f
1:00am 4.5ft 11s 13 18 mph 1004.2mb 48f 42f
12:00am 4.5ft 11s 16 20 mph 1004.8mb 48f 42f
Fri 02/17 11:00pm 4.5ft 11s 16 18 mph 1005.5mb 48f 43f
10:00pm 4.5ft 12s 13 18 mph 1006.3mb 48f 43f
9:00pm 4.5ft 10s 16 18 mph 1006.4mb 48f 43f
7:00pm 5ft 11s 13 18 mph 1007.1mb 48f 43f
6:00pm 4.5ft 11s 13 18 mph 1007.3mb 48f 42f
5:00pm 5ft 11s 13 18 mph 1007.5mb 48f 42f
4:00pm 5ft 11s 16 18 mph 1007.8mb 48f 43f
3:00pm 5ft 10s 13 18 mph 1008mb 48f 43f
2:00pm 5ft 11s 13 16 mph 1008.2mb 48f 43f
1:00pm 5.5ft 10s 13 18 mph 1008.4mb 48f 43f
12:00pm 5.5ft 10s 13 18 mph 1008.6mb 48f 43f
11:00am 5.5ft 11s 13 16 mph 1008.5mb 48f 42f
10:00am 5.5ft 11s 16 18 mph 1008.2mb 48f 42f
9:00am 5ft 11s 13 18 mph 1008.1mb 48f 43f
8:00am 6ft 12s 13 18 mph 1007.7mb 48f 42f
7:00am 6ft 11s 16 20 mph 1007.2mb 48f 43f
6:00am 6ft 11s 16 20 mph 1006.9mb 48f 43f
5:00am 6.5ft 11s 18 20 mph 1006.5mb 48f 42f
4:00am 6.5ft 12s 13 16 mph 1006mb 48f 43f
3:00am 7ft 11s 13 16 mph 1005.6mb 48f 43f
2:00am 7ft 11s 16 20 mph 1005mb 48f 43f
1:00am 7ft 11s 16 20 mph 1004.6mb 48f 43f
12:00am 8ft 11s 16 20 mph 1004.1mb 48f 44f
Thu 02/16 11:00pm 8.5ft 11s 13 20 mph 1003.2mb 48f 44f
10:00pm 7ft 12s 16 20 mph 1002.3mb 48f 44f
9:00pm 8ft 11s 9 16 mph 1001.4mb 48f 45f
8:00pm 7ft 13s 7 9 mph 1000.5mb 48f 45f
7:00pm 7ft 13s 9 13 mph 999.7mb 48f 45f
6:00pm 7ft 13s 11 13 mph 998.8mb 48f 44f
5:00pm 8ft 12s 13 16 mph 997.4mb 48f 44f
4:00pm 8.5ft 13s 18 20 mph 996.2mb 48f 43f
3:00pm 8ft 11s 16 20 mph 995.1mb 48f 43f
2:00pm 9.5ft 8s 16 20 mph 993.8mb 48f 43f
1:00pm 9.5ft 8s 18 22 mph 992.7mb 48f 43f
12:00pm 10ft 12s 20 25 mph 991.3mb 48f 43f
11:00am 11ft 12s 25 29 mph 989.5mb 48f 42f
10:00am 11ft 12s 27 31 mph 987.6mb 48f 42f